createdAt,value
2018-06-22T00:01:42.206Z,98395.94
2018-06-22T00:04:11.008Z,98394.95
2018-06-22T00:06:39.798Z,98391.31
2018-06-22T00:09:10.112Z,98385.00
2018-06-22T00:11:39.168Z,98395.09
2018-06-22T00:14:08.420Z,98391.55
2018-06-22T00:16:37.339Z,98392.66
2018-06-22T00:19:06.130Z,98396.73
2018-06-22T00:21:34.857Z,98402.70
2018-06-22T00:24:03.633Z,98400.80
2018-06-22T00:26:32.289Z,98401.80
2018-06-22T00:29:01.412Z,98403.57
2018-06-22T00:31:30.095Z,98400.80
2018-06-22T00:33:58.813Z,98408.80
2018-06-22T00:36:27.672Z,98412.88
2018-06-22T00:38:56.379Z,98410.72
2018-06-22T00:41:25.223Z,98410.17
2018-06-22T00:43:54.096Z,98416.40
2018-06-22T00:46:24.599Z,98416.33
2018-06-22T00:48:53.403Z,98416.05
2018-06-22T00:51:22.177Z,98418.86
2018-06-22T00:54:01.906Z,98426.20
2018-06-22T00:56:30.798Z,98431.61
2018-06-22T00:58:59.635Z,98427.73
2018-06-22T01:01:28.497Z,98427.02
2018-06-22T01:03:57.508Z,98429.85
2018-06-22T01:06:26.437Z,98429.23
2018-06-22T01:08:55.210Z,98431.05
2018-06-22T01:11:23.939Z,98437.58
2018-06-22T01:13:52.591Z,98429.70
2018-06-22T01:16:21.247Z,98440.20
2018-06-22T01:18:50.133Z,98435.15
2018-06-22T01:21:18.953Z,98436.34
2018-06-22T01:23:48.223Z,98435.42
2018-06-22T01:26:16.984Z,98432.56
2018-06-22T01:28:45.794Z,98433.05
2018-06-22T01:31:14.618Z,98434.34
2018-06-22T01:33:43.534Z,98433.17
2018-06-22T01:36:12.337Z,98436.18
2018-06-22T01:38:41.236Z,98438.02
2018-06-22T01:41:09.995Z,98430.65
2018-06-22T01:43:38.963Z,98435.02
2018-06-22T01:46:08.196Z,98436.38
2018-06-22T01:48:37.513Z,98445.77
2018-06-22T01:51:06.577Z,98444.11
2018-06-22T01:53:35.352Z,98450.90
2018-06-22T01:56:04.206Z,98444.00
2018-06-22T01:58:33.056Z,98446.98
2018-06-22T02:01:01.928Z,98455.56
2018-06-22T02:03:31.196Z,98447.33
2018-06-22T02:06:00.178Z,98448.26
2018-06-22T02:08:29.740Z,98450.21
2018-06-22T02:10:58.683Z,98448.98
2018-06-22T02:13:27.697Z,98452.64
2018-06-22T02:15:56.645Z,98441.07
2018-06-22T02:18:25.750Z,98444.95
2018-06-22T02:20:54.873Z,98438.04
2018-06-22T02:23:23.860Z,98445.05
2018-06-22T02:25:52.870Z,98449.67
2018-06-22T02:28:21.750Z,98448.98
2018-06-22T02:30:50.945Z,98450.73
2018-06-22T02:33:19.920Z,98448.00
2018-06-22T02:35:48.657Z,98450.53
2018-06-22T02:38:17.615Z,98455.95
2018-06-22T02:40:46.520Z,98455.69
2018-06-22T02:43:15.354Z,98463.75
2018-06-22T02:45:44.204Z,98465.52
2018-06-22T02:48:13.125Z,98464.02
2018-06-22T02:50:42.006Z,98468.69
2018-06-22T02:53:10.861Z,98466.68
2018-06-22T02:55:39.848Z,98465.78
2018-06-22T02:58:08.763Z,98475.02
2018-06-22T03:00:37.527Z,98471.92
2018-06-22T03:03:06.478Z,98470.19
2018-06-22T03:05:35.246Z,98465.21
2018-06-22T03:08:04.140Z,98465.34
2018-06-22T03:10:32.996Z,98476.39
2018-06-22T03:13:01.833Z,98475.71
2018-06-22T03:15:30.766Z,98472.04
2018-06-22T03:17:59.861Z,98476.87
2018-06-22T03:20:28.675Z,98480.20
2018-06-22T03:22:57.599Z,98484.30
2018-06-22T03:25:26.397Z,98479.36
2018-06-22T03:27:55.555Z,98485.05
2018-06-22T03:30:24.654Z,98486.31
2018-06-22T03:32:53.669Z,98491.17
2018-06-22T03:35:23.011Z,98495.30
2018-06-22T03:37:51.961Z,98491.55
2018-06-22T03:40:20.883Z,98496.67
2018-06-22T03:42:49.882Z,98484.27
2018-06-22T03:45:18.785Z,98486.47
2018-06-22T03:47:47.551Z,98485.55
2018-06-22T03:50:16.582Z,98492.72
2018-06-22T03:52:45.357Z,98490.42
2018-06-22T03:55:14.418Z,98491.87
2018-06-22T03:57:43.493Z,98494.34
2018-06-22T04:00:12.346Z,98497.84
2018-06-22T04:02:41.186Z,98493.83
2018-06-22T04:05:09.938Z,98497.59
2018-06-22T04:07:38.811Z,98495.80
2018-06-22T04:10:07.733Z,98492.02
2018-06-22T04:12:36.490Z,98489.12
2018-06-22T04:15:05.488Z,98488.03
2018-06-22T04:17:38.497Z,98492.48
2018-06-22T04:20:07.400Z,98494.41
2018-06-22T04:22:36.471Z,98494.09
2018-06-22T04:25:05.309Z,98500.67
2018-06-22T04:27:34.422Z,98502.58
2018-06-22T04:30:03.649Z,98496.80
2018-06-22T04:32:32.662Z,98504.85
2018-06-22T04:35:01.474Z,98508.91
2018-06-22T04:37:30.556Z,98514.81
2018-06-22T04:39:59.363Z,98516.77
2018-06-22T04:42:28.094Z,98523.44
2018-06-22T04:44:56.940Z,98523.75
2018-06-22T04:47:25.838Z,98514.91
2018-06-22T04:49:54.707Z,98511.52
2018-06-22T04:52:23.612Z,98517.95
2018-06-22T04:54:52.809Z,98523.00
2018-06-22T04:57:21.701Z,98524.80
2018-06-22T04:59:50.529Z,98521.90
2018-06-22T05:02:19.445Z,98514.30
2018-06-22T05:04:48.582Z,98516.85
2018-06-22T05:07:17.426Z,98518.60
2018-06-22T05:09:46.842Z,98514.45
2018-06-22T05:12:16.239Z,98518.25
2018-06-22T05:14:45.173Z,98516.43
2018-06-22T05:17:14.034Z,98523.39
2018-06-22T05:19:42.717Z,98525.66
2018-06-22T05:22:11.833Z,98521.50
2018-06-22T05:24:40.705Z,98516.79
2018-06-22T05:27:09.545Z,98509.33
2018-06-22T05:29:38.350Z,98508.08
2018-06-22T05:32:07.170Z,98510.98
2018-06-22T05:34:36.384Z,98510.14
2018-06-22T05:37:05.598Z,98512.23
2018-06-22T05:39:34.371Z,98506.48
2018-06-22T05:42:03.182Z,98509.63
2018-06-22T05:44:32.563Z,98514.80
2018-06-22T05:47:01.310Z,98513.08
2018-06-22T05:49:30.230Z,98501.55
2018-06-22T05:51:59.154Z,98500.53
2018-06-22T05:54:28.356Z,98502.21
2018-06-22T05:56:57.387Z,98500.91
2018-06-22T05:59:26.182Z,98507.62
2018-06-22T06:01:55.121Z,98499.30
2018-06-22T06:04:24.090Z,98499.77
2018-06-22T06:06:53.044Z,98493.11
2018-06-22T06:09:21.877Z,98487.30
2018-06-22T06:11:50.757Z,98485.26
2018-06-22T06:14:19.813Z,98489.67
2018-06-22T06:16:48.534Z,98491.34
2018-06-22T06:19:17.545Z,98487.21
2018-06-22T06:21:46.362Z,98492.02
2018-06-22T06:24:16.229Z,98481.44
2018-06-22T06:26:45.042Z,98483.11
2018-06-22T06:29:14.021Z,98483.77
2018-06-22T06:31:42.769Z,98486.09
2018-06-22T06:34:11.909Z,98484.60
2018-06-22T06:36:40.787Z,98484.02
2018-06-22T06:39:09.574Z,98475.80
2018-06-22T06:41:38.591Z,98483.63
2018-06-22T06:44:07.764Z,98488.07
2018-06-22T06:46:36.655Z,98484.59
2018-06-22T06:49:05.834Z,98478.76
2018-06-22T06:51:34.806Z,98486.86
2018-06-22T06:54:04.006Z,98490.64
2018-06-22T06:56:32.802Z,98478.94
2018-06-22T06:59:02.366Z,98490.72
2018-06-22T07:01:31.544Z,98481.19
2018-06-22T07:04:01.181Z,98468.57
2018-06-22T07:06:30.074Z,98467.15
2018-06-22T07:08:59.102Z,98476.14
2018-06-22T07:11:28.041Z,98477.43
2018-06-22T07:13:57.032Z,98480.66
2018-06-22T07:16:26.313Z,98481.99
2018-06-22T07:18:55.222Z,98485.39
2018-06-22T07:21:23.984Z,98483.06
2018-06-22T07:23:52.925Z,98490.88
2018-06-22T07:26:21.798Z,98489.15
2018-06-22T07:28:50.666Z,98495.39
2018-06-22T07:31:19.634Z,98487.08
2018-06-22T07:33:48.643Z,98495.72
2018-06-22T07:36:17.815Z,98494.03
2018-06-22T07:38:46.987Z,98487.44
2018-06-22T07:41:15.906Z,98492.08
2018-06-22T07:43:44.652Z,98482.09
2018-06-22T07:46:13.653Z,98490.50
2018-06-22T07:48:42.634Z,98497.69
2018-06-22T07:51:11.556Z,98493.78
2018-06-22T07:53:40.463Z,98486.09
2018-06-22T07:56:09.333Z,98487.63
2018-06-22T07:58:38.248Z,98483.28
2018-06-22T08:01:07.692Z,98492.07
2018-06-22T08:03:36.734Z,98484.60
2018-06-22T08:06:05.661Z,98496.94
2018-06-22T08:08:34.819Z,98494.61
2018-06-22T08:11:03.795Z,98480.08
2018-06-22T08:13:32.851Z,98490.30
2018-06-22T08:16:01.759Z,98498.73
2018-06-22T08:18:30.637Z,98493.30
2018-06-22T08:20:59.709Z,98497.56
2018-06-22T08:23:35.608Z,98488.77
2018-06-22T08:26:04.444Z,98494.19
2018-06-22T08:28:35.537Z,98495.65
2018-06-22T08:31:04.477Z,98487.97
2018-06-22T08:33:33.218Z,98490.28
2018-06-22T08:36:02.142Z,98481.67
2018-06-22T08:38:31.218Z,98480.83
2018-06-22T08:41:00.162Z,98467.98
2018-06-22T08:43:28.929Z,98455.59
2018-06-22T08:45:59.184Z,98463.08
2018-06-22T08:48:27.938Z,98460.49
2018-06-22T08:50:56.891Z,98465.38
2018-06-22T08:53:26.015Z,98466.86
2018-06-22T08:55:54.970Z,98471.20
2018-06-22T08:58:23.906Z,98469.90
2018-06-22T09:00:52.896Z,98473.17
2018-06-22T09:03:22.086Z,98470.41
2018-06-22T09:05:51.034Z,98477.50
2018-06-22T09:08:20.044Z,98495.89
2018-06-22T09:10:48.824Z,98493.80
2018-06-22T09:13:17.734Z,98508.27
2018-06-22T09:15:46.627Z,98500.28
2018-06-22T09:18:15.546Z,98511.12
2018-06-22T09:20:44.536Z,98510.89
2018-06-22T09:23:13.469Z,98504.73
2018-06-22T09:25:42.538Z,98511.57
2018-06-22T09:28:11.631Z,98516.92
2018-06-22T09:30:40.406Z,98524.58
2018-06-22T09:33:09.342Z,98515.50
2018-06-22T09:35:38.207Z,98519.27
2018-06-22T09:38:07.608Z,98521.90
2018-06-22T09:40:36.508Z,98523.14
2018-06-22T09:43:05.864Z,98528.47
2018-06-22T09:45:34.663Z,98531.97
2018-06-22T09:48:03.745Z,98542.80
2018-06-22T09:50:32.747Z,98540.13
2018-06-22T09:53:01.636Z,98560.14
2018-06-22T09:55:30.319Z,98571.53
2018-06-22T09:57:59.027Z,98567.86
2018-06-22T10:00:28.039Z,98560.70
2018-06-22T10:02:57.172Z,98557.39
2018-06-22T10:05:26.401Z,98552.27
2018-06-22T10:07:55.222Z,98552.41
2018-06-22T10:10:24.055Z,98558.50
2018-06-22T10:12:52.859Z,98563.84
2018-06-22T10:15:21.888Z,98559.95
2018-06-22T10:17:50.652Z,98561.63
2018-06-22T10:20:19.894Z,98556.91
2018-06-22T10:22:48.622Z,98566.19
2018-06-22T10:25:17.749Z,98572.08
2018-06-22T10:27:46.603Z,98558.11
2018-06-22T10:30:15.522Z,98565.05
2018-06-22T10:32:44.465Z,98561.64
2018-06-22T10:35:13.414Z,98556.27
2018-06-22T10:37:42.531Z,98550.38
2018-06-22T10:40:11.535Z,98546.09
2018-06-22T10:42:40.563Z,98553.11
2018-06-22T10:45:09.743Z,98558.45
2018-06-22T10:47:38.833Z,98553.98
2018-06-22T10:50:07.900Z,98554.84
2018-06-22T10:52:36.792Z,98546.56
2018-06-22T10:55:06.043Z,98548.96
2018-06-22T10:57:35.117Z,98542.79
2018-06-22T11:00:04.154Z,98567.95
2018-06-22T11:02:33.110Z,98541.55
2018-06-22T11:05:02.027Z,98538.81
2018-06-22T11:07:30.832Z,98538.39
2018-06-22T11:09:59.929Z,98542.66
2018-06-22T11:12:29.253Z,98544.49
2018-06-22T11:15:01.454Z,98543.03
2018-06-22T11:17:30.382Z,98551.23
2018-06-22T11:19:59.382Z,98550.77
2018-06-22T11:22:28.607Z,98542.66
2018-06-22T11:24:57.292Z,98551.72
2018-06-22T11:27:26.399Z,98546.41
2018-06-22T11:29:55.222Z,98545.94
2018-06-22T11:32:24.242Z,98537.89
2018-06-22T11:34:53.166Z,98533.89
2018-06-22T11:37:22.086Z,98535.03
2018-06-22T11:39:51.222Z,98528.67
2018-06-22T11:42:20.219Z,98540.34
2018-06-22T11:44:48.929Z,98535.70
2018-06-22T11:47:17.777Z,98535.64
2018-06-22T11:49:46.699Z,98529.43
2018-06-22T11:52:15.581Z,98531.63
2018-06-22T11:54:45.098Z,98538.27
2018-06-22T11:57:14.620Z,98524.20
2018-06-22T11:59:43.614Z,98521.41
2018-06-22T12:02:12.589Z,98513.56
2018-06-22T12:04:41.547Z,98513.19
2018-06-22T12:07:10.463Z,98510.48
2018-06-22T12:09:39.281Z,98509.83
2018-06-22T12:12:08.302Z,98497.39
2018-06-22T12:14:37.137Z,98517.17
2018-06-22T12:17:06.158Z,98517.75
2018-06-22T12:19:34.901Z,98513.98
2018-06-22T12:22:03.946Z,98525.45
2018-06-22T12:24:33.030Z,98529.94
2018-06-22T12:27:01.893Z,98514.84
2018-06-22T12:29:30.962Z,98494.48
2018-06-22T12:31:59.785Z,98502.56
2018-06-22T12:34:28.785Z,98502.89
2018-06-22T12:36:57.571Z,98490.03
2018-06-22T12:39:26.658Z,98499.19
2018-06-22T12:41:56.702Z,98523.88
2018-06-22T12:44:25.661Z,98523.77
2018-06-22T12:46:54.571Z,98518.20
2018-06-22T12:49:23.585Z,98517.41
2018-06-22T12:51:52.557Z,98520.47
2018-06-22T12:54:21.360Z,98525.03
2018-06-22T12:56:50.624Z,98509.64
2018-06-22T12:59:19.686Z,98510.52
2018-06-22T13:01:48.523Z,98495.00
2018-06-22T13:04:17.228Z,98498.03
2018-06-22T13:06:46.346Z,98494.61
2018-06-22T13:09:15.149Z,98512.37
2018-06-22T13:11:43.962Z,98515.87
2018-06-22T13:14:12.949Z,98527.56
2018-06-22T13:16:41.935Z,98532.41
2018-06-22T13:19:10.794Z,98537.25
2018-06-22T13:21:49.483Z,98522.64
2018-06-22T13:24:19.281Z,98528.80
2018-06-22T13:26:48.920Z,98530.81
2018-06-22T13:29:17.757Z,98528.05
2018-06-22T13:31:46.725Z,98529.33
2018-06-22T13:34:16.733Z,98520.30
2018-06-22T13:36:46.865Z,98523.84
2018-06-22T13:39:17.066Z,98516.99
2018-06-22T13:41:46.471Z,98507.57
2018-06-22T13:44:15.221Z,98512.48
2018-06-22T13:46:44.766Z,98518.59
2018-06-22T13:49:13.975Z,98522.05
2018-06-22T13:51:42.882Z,98515.80
2018-06-22T13:54:11.860Z,98533.07
2018-06-22T13:56:40.656Z,98520.91
2018-06-22T13:59:09.754Z,98509.88
2018-06-22T14:01:38.661Z,98513.58
2018-06-22T14:04:13.116Z,98513.02
2018-06-22T14:06:47.102Z,98511.08
2018-06-22T14:09:16.268Z,98513.70
2018-06-22T14:11:45.252Z,98525.16
2018-06-22T14:14:14.163Z,98550.38
2018-06-22T14:16:43.518Z,98572.05
2018-06-22T14:19:12.614Z,98562.18
2018-06-22T14:21:41.894Z,98580.01
2018-06-22T14:24:10.639Z,98567.73
2018-06-22T14:26:39.872Z,98559.25
2018-06-22T14:29:09.158Z,98562.22
2018-06-22T14:31:38.244Z,98555.61
2018-06-22T14:34:07.297Z,98555.84
2018-06-22T14:36:36.120Z,98541.34
2018-06-22T14:39:08.331Z,98541.58
2018-06-22T14:41:37.286Z,98536.36
2018-06-22T14:44:06.765Z,98549.48
2018-06-22T14:46:35.665Z,98558.23
2018-06-22T14:49:04.997Z,98548.94
2018-06-22T14:51:34.384Z,98569.69
2018-06-22T14:54:08.469Z,98557.49
2018-06-22T14:57:45.111Z,98554.33
2018-06-22T15:00:18.994Z,98600.77
2018-06-22T15:02:53.254Z,98611.70
2018-06-22T15:05:27.350Z,98617.20
2018-06-22T15:07:58.746Z,98617.29
2018-06-22T15:10:27.868Z,98620.34
2018-06-22T15:12:56.944Z,98606.09
2018-06-22T15:15:25.949Z,98606.42
2018-06-22T15:17:55.258Z,98593.80
2018-06-22T15:20:24.428Z,98593.86
2018-06-22T15:22:53.454Z,98592.03
2018-06-22T15:25:22.383Z,98598.00
2018-06-22T15:27:51.412Z,98596.09
2018-06-22T15:30:20.328Z,98594.27
2018-06-22T15:32:49.199Z,98591.91
2018-06-22T15:35:23.082Z,98595.23
2018-06-22T15:37:57.205Z,98594.09
2018-06-22T15:40:31.262Z,98594.73
2018-06-22T15:43:05.314Z,98592.38
2018-06-22T15:45:39.273Z,98582.63
2018-06-22T15:48:13.195Z,98583.08
2018-06-22T15:50:47.579Z,98584.12
2018-06-22T15:53:21.419Z,98587.09
2018-06-22T15:55:50.879Z,98580.14
2018-06-22T15:58:20.070Z,98575.09
2018-06-22T16:00:49.222Z,98582.12
2018-06-22T16:03:23.480Z,98578.77
2018-06-22T16:05:52.390Z,98566.30
2018-06-22T16:08:21.336Z,98569.63
2018-06-22T16:10:50.070Z,98566.33
2018-06-22T16:13:21.040Z,98555.52
2018-06-22T16:15:56.159Z,98564.98
2018-06-22T16:18:30.292Z,98561.00
2018-06-22T16:21:04.214Z,98570.50
2018-06-22T16:23:38.278Z,98571.88
2018-06-22T16:26:12.350Z,98574.53
2018-06-22T16:28:41.267Z,98571.41
2018-06-22T16:31:10.376Z,98578.32
2018-06-22T16:33:43.433Z,98582.27
2018-06-22T16:36:12.470Z,98577.38
2018-06-22T16:38:41.287Z,98585.22
2018-06-22T16:41:10.252Z,98576.88
2018-06-22T16:43:39.165Z,98581.23
2018-06-22T16:46:08.148Z,98580.05
2018-06-22T16:48:37.229Z,98595.65
2018-06-22T16:51:06.383Z,98580.49
2018-06-22T16:53:35.487Z,98584.06
2018-06-22T16:56:04.441Z,98589.39
2018-06-22T16:58:39.749Z,98602.78
2018-06-22T17:01:10.176Z,98592.47
2018-06-22T17:03:39.084Z,98601.42
2018-06-22T17:06:08.625Z,98606.41
2018-06-22T17:08:42.918Z,98607.32
2018-06-22T17:11:16.954Z,98608.09
2018-06-22T17:13:51.018Z,98609.91
2018-06-22T17:16:24.979Z,98622.28
2018-06-22T17:18:55.379Z,98622.44
2018-06-22T17:21:24.375Z,98616.04
2018-06-22T17:23:53.683Z,98621.56
2018-06-22T17:26:22.585Z,98617.50
2018-06-22T17:28:51.381Z,98626.29
2018-06-22T17:31:20.300Z,98625.60
2018-06-22T17:33:49.093Z,98622.28
2018-06-22T17:36:17.937Z,98625.80
2018-06-22T17:38:47.163Z,98621.22
2018-06-22T17:41:16.249Z,98639.84
2018-06-22T17:43:45.192Z,98645.36
2018-06-22T17:46:13.964Z,98635.13
2018-06-22T17:48:43.097Z,98624.80
2018-06-22T17:51:12.219Z,98620.41
2018-06-22T17:53:41.288Z,98615.38
2018-06-22T17:56:10.395Z,98621.95
2018-06-22T17:58:42.912Z,98624.69
2018-06-22T18:01:16.689Z,98629.86
2018-06-22T18:03:50.785Z,98629.45
2018-06-22T18:06:24.710Z,98625.54
2018-06-22T18:08:53.812Z,98628.37
2018-06-22T18:12:27.717Z,98630.64
2018-06-22T18:14:56.617Z,98619.05
2018-06-22T18:17:25.690Z,98624.90
2018-06-22T18:19:54.658Z,98628.45
2018-06-22T18:22:24.007Z,98629.45
2018-06-22T18:24:53.197Z,98631.77
2018-06-22T18:27:22.484Z,98635.95
2018-06-22T18:29:51.321Z,98631.88
2018-06-22T18:32:20.317Z,98622.58
2018-06-22T18:34:49.103Z,98629.65
2018-06-22T18:37:17.971Z,98636.13
2018-06-22T18:39:46.717Z,98632.34
2018-06-22T18:42:15.494Z,98641.73
2018-06-22T18:44:44.944Z,98648.55
2018-06-22T18:47:13.996Z,98643.97
2018-06-22T18:49:42.937Z,98654.47
2018-06-22T18:52:17.050Z,98657.27
2018-06-22T18:54:51.046Z,98650.58
2018-06-22T18:57:25.157Z,98653.88
2018-06-22T19:00:57.344Z,98654.47
2018-06-22T19:10:34.646Z,98667.34
2018-06-22T19:13:04.653Z,98665.73
2018-06-22T19:15:33.621Z,98665.49
2018-06-22T19:18:02.720Z,98663.74
2018-06-22T19:20:31.463Z,98668.14
2018-06-22T19:23:00.384Z,98674.13
2018-06-22T19:25:29.325Z,98678.52
2018-06-22T19:27:58.250Z,98680.09
2018-06-22T19:30:27.216Z,98680.05
2018-06-22T19:32:56.211Z,98691.75
2018-06-22T19:35:25.129Z,98686.22
2018-06-22T19:37:53.977Z,98687.92
2018-06-22T19:40:22.826Z,98689.04
2018-06-22T19:42:51.654Z,98689.39
2018-06-22T19:45:25.646Z,98696.63
2018-06-22T19:47:59.901Z,98693.36
2018-06-22T19:50:33.829Z,98693.59
2018-06-22T19:54:09.720Z,98701.22
2018-06-22T19:56:38.885Z,98707.98
2018-06-22T19:59:07.669Z,98712.30
2018-06-22T20:01:36.953Z,98708.88
2018-06-22T20:04:06.687Z,98713.75
2018-06-22T20:06:35.698Z,98721.56
2018-06-22T20:09:07.109Z,98718.54
2018-06-22T20:11:36.103Z,98716.75
2018-06-22T20:14:05.354Z,98727.73
2018-06-22T20:16:34.526Z,98725.33
2018-06-22T20:19:03.733Z,98732.64
2018-06-22T20:21:32.605Z,98732.98
2018-06-22T20:24:01.434Z,98735.52
2018-06-22T20:26:30.173Z,98730.17
2018-06-22T20:28:59.177Z,98728.20
2018-06-22T20:31:33.260Z,98731.94
2018-06-22T20:34:07.636Z,98731.88
2018-06-22T20:36:41.613Z,98732.43
2018-06-22T20:39:15.753Z,98734.71
2018-06-22T20:41:49.782Z,98740.63
2018-06-22T20:44:24.177Z,98736.86
2018-06-22T20:46:58.140Z,98743.41
2018-06-22T20:49:32.278Z,98745.25
2018-06-22T20:52:01.240Z,98747.03
2018-06-22T20:54:30.067Z,98747.03
2018-06-22T20:56:58.978Z,98751.66
2018-06-22T20:59:27.894Z,98750.87
2018-06-22T21:01:57.325Z,98755.50
2018-06-22T21:04:26.203Z,98760.27
2018-06-22T21:06:55.260Z,98755.64
2018-06-22T21:09:24.117Z,98755.24
2018-06-22T21:11:53.105Z,98759.56
2018-06-22T21:14:22.075Z,98760.51
2018-06-22T21:16:50.901Z,98752.45
2018-06-22T21:19:19.732Z,98756.59
2018-06-22T21:21:53.837Z,98754.56
2018-06-22T21:24:23.345Z,98759.77
2018-06-22T21:26:52.139Z,98758.27
2018-06-22T21:29:26.075Z,98758.91
2018-06-22T21:32:00.182Z,98765.03
2018-06-22T21:34:34.240Z,98767.74
2018-06-22T21:37:08.757Z,98758.36
2018-06-22T21:39:37.710Z,98769.79
2018-06-22T21:42:06.589Z,98767.25
2018-06-22T21:44:35.518Z,98767.86
2018-06-22T21:47:04.744Z,98771.95
2018-06-22T21:49:33.521Z,98769.59
2018-06-22T21:52:02.546Z,98776.73
2018-06-22T21:54:31.643Z,98773.98
2018-06-22T21:57:00.472Z,98773.44
2018-06-22T21:59:29.549Z,98776.23
2018-06-22T22:01:58.409Z,98772.17
2018-06-22T22:04:27.291Z,98765.64
2018-06-22T22:06:56.198Z,98776.81
2018-06-22T22:09:25.138Z,98778.17
2018-06-22T22:11:54.480Z,98781.98
2018-06-22T22:14:25.629Z,98774.23
2018-06-22T22:16:54.909Z,98776.65
2018-06-22T22:19:23.829Z,98776.65
2018-06-22T22:21:52.853Z,98780.08
2018-06-22T22:24:21.674Z,98779.08
2018-06-22T22:26:50.677Z,98777.05
2018-06-22T22:29:19.677Z,98774.77
2018-06-22T22:31:48.726Z,98775.30
2018-06-22T22:34:17.565Z,98775.35
2018-06-22T22:36:46.255Z,98773.14
2018-06-22T22:39:15.209Z,98769.92
2018-06-22T22:41:44.318Z,98778.43
2018-06-22T22:44:13.386Z,98773.39
2018-06-22T22:46:42.424Z,98770.56
2018-06-22T22:49:11.267Z,98772.42
2018-06-22T22:51:40.398Z,98771.45
2018-06-22T22:54:09.335Z,98770.52
2018-06-22T22:56:38.254Z,98770.40
2018-06-22T22:59:07.117Z,98772.25
2018-06-22T23:01:35.881Z,98773.80
2018-06-22T23:04:04.664Z,98767.08
2018-06-22T23:06:33.609Z,98763.92
2018-06-22T23:09:02.425Z,98765.72
2018-06-22T23:11:31.347Z,98758.77
2018-06-22T23:14:00.449Z,98765.36
2018-06-22T23:16:35.819Z,98754.04
2018-06-22T23:19:04.738Z,98755.33
2018-06-22T23:21:33.886Z,98753.42
2018-06-22T23:24:02.818Z,98761.20
2018-06-22T23:26:35.567Z,98745.16
2018-06-22T23:29:04.473Z,98744.14
2018-06-22T23:31:33.323Z,98743.56
2018-06-22T23:34:02.177Z,98742.61
2018-06-22T23:36:31.110Z,98744.24
2018-06-22T23:39:00.233Z,98742.95
2018-06-22T23:41:29.136Z,98742.03
2018-06-22T23:43:58.307Z,98747.95
2018-06-22T23:46:27.077Z,98747.09
2018-06-22T23:48:56.115Z,98748.87
2018-06-22T23:51:25.026Z,98745.66
2018-06-22T23:53:54.178Z,98751.20
2018-06-22T23:56:23.282Z,98748.94
2018-06-22T23:58:52.229Z,98750.84
